sensor_id;sensor_type;location;lat;lon;timestamp;P1;durP1;ratioP1;P2;durP2;ratioP2
23280;SDS011;11809;56.390;-3.266;2023-04-25T00:01:56;1.10;;;0.80;;
23280;SDS011;11809;56.390;-3.266;2023-04-25T00:04:23;1.85;;;0.70;;
23280;SDS011;11809;56.390;-3.266;2023-04-25T00:06:50;0.85;;;0.55;;
23280;SDS011;11809;56.390;-3.266;2023-04-25T00:09:18;0.70;;;0.60;;
23280;SDS011;11809;56.390;-3.266;2023-04-25T00:11:45;2.50;;;0.82;;
23280;SDS011;11809;56.390;-3.266;2023-04-25T00:14:12;1.65;;;0.68;;
23280;SDS011;11809;56.390;-3.266;2023-04-25T00:16:40;1.10;;;0.77;;
23280;SDS011;11809;56.390;-3.266;2023-04-25T00:19:07;1.35;;;0.70;;
23280;SDS011;11809;56.390;-3.266;2023-04-25T00:21:36;1.70;;;0.90;;
23280;SDS011;11809;56.390;-3.266;2023-04-25T00:24:07;1.38;;;0.68;;
23280;SDS011;11809;56.390;-3.266;2023-04-25T00:26:34;0.73;;;0.70;;
23280;SDS011;11809;56.390;-3.266;2023-04-25T00:29:02;1.80;;;0.75;;
23280;SDS011;11809;56.390;-3.266;2023-04-25T00:31:29;1.52;;;0.63;;
23280;SDS011;11809;56.390;-3.266;2023-04-25T00:33:57;1.17;;;0.60;;
23280;SDS011;11809;56.390;-3.266;2023-04-25T00:36:24;1.98;;;0.65;;
23280;SDS011;11809;56.390;-3.266;2023-04-25T00:38:52;1.08;;;0.80;;
23280;SDS011;11809;56.390;-3.266;2023-04-25T00:41:19;1.00;;;0.70;;
23280;SDS011;11809;56.390;-3.266;2023-04-25T00:43:47;1.08;;;0.75;;
23280;SDS011;11809;56.390;-3.266;2023-04-25T00:46:15;2.55;;;0.95;;
23280;SDS011;11809;56.390;-3.266;2023-04-25T00:48:42;0.95;;;0.68;;
23280;SDS011;11809;56.390;-3.266;2023-04-25T00:51:09;1.48;;;0.63;;
23280;SDS011;11809;56.390;-3.266;2023-04-25T00:53:42;1.25;;;0.80;;
23280;SDS011;11809;56.390;-3.266;2023-04-25T00:56:09;0.70;;;0.60;;
23280;SDS011;11809;56.390;-3.266;2023-04-25T00:58:36;2.25;;;0.68;;
23280;SDS011;11809;56.390;-3.266;2023-04-25T01:01:04;1.00;;;0.60;;
23280;SDS011;11809;56.390;-3.266;2023-04-25T01:03:33;1.23;;;0.60;;
23280;SDS011;11809;56.390;-3.266;2023-04-25T01:06:10;1.70;;;0.70;;
23280;SDS011;11809;56.390;-3.266;2023-04-25T01:08:38;2.13;;;0.70;;
23280;SDS011;11809;56.390;-3.266;2023-04-25T01:11:06;1.83;;;0.47;;
23280;SDS011;11809;56.390;-3.266;2023-04-25T01:13:33;1.73;;;0.68;;
23280;SDS011;11809;56.390;-3.266;2023-04-25T01:16:02;0.60;;;0.60;;
23280;SDS011;11809;56.390;-3.266;2023-04-25T01:18:29;1.73;;;0.80;;
23280;SDS011;11809;56.390;-3.266;2023-04-25T01:23:33;1.42;;;0.68;;
23280;SDS011;11809;56.390;-3.266;2023-04-25T01:26:00;0.85;;;0.80;;
23280;SDS011;11809;56.390;-3.266;2023-04-25T01:28:28;0.63;;;0.63;;
23280;SDS011;11809;56.390;-3.266;2023-04-25T01:30:55;1.38;;;0.63;;
23280;SDS011;11809;56.390;-3.266;2023-04-25T01:33:23;0.60;;;0.60;;
23280;SDS011;11809;56.390;-3.266;2023-04-25T01:35:50;1.02;;;0.45;;
23280;SDS011;11809;56.390;-3.266;2023-04-25T01:38:17;1.65;;;0.70;;
23280;SDS011;11809;56.390;-3.266;2023-04-25T01:40:45;0.93;;;0.50;;
23280;SDS011;11809;56.390;-3.266;2023-04-25T01:43:13;1.38;;;0.70;;
23280;SDS011;11809;56.390;-3.266;2023-04-25T01:45:41;0.60;;;0.50;;
23280;SDS011;11809;56.390;-3.266;2023-04-25T01:48:09;0.77;;;0.55;;
23280;SDS011;11809;56.390;-3.266;2023-04-25T01:50:38;1.05;;;0.60;;
23280;SDS011;11809;56.390;-3.266;2023-04-25T01:53:05;0.98;;;0.60;;
23280;SDS011;11809;56.390;-3.266;2023-04-25T01:55:33;1.33;;;0.60;;
23280;SDS011;11809;56.390;-3.266;2023-04-25T01:58:00;0.82;;;0.50;;
23280;SDS011;11809;56.390;-3.266;2023-04-25T02:00:29;1.30;;;0.63;;
23280;SDS011;11809;56.390;-3.266;2023-04-25T02:02:59;1.42;;;0.70;;
23280;SDS011;11809;56.390;-3.266;2023-04-25T02:05:26;2.05;;;0.70;;
23280;SDS011;11809;56.390;-3.266;2023-04-25T02:07:53;2.70;;;0.90;;
23280;SDS011;11809;56.390;-3.266;2023-04-25T02:10:20;1.55;;;0.60;;
23280;SDS011;11809;56.390;-3.266;2023-04-25T02:12:47;1.83;;;0.70;;
23280;SDS011;11809;56.390;-3.266;2023-04-25T02:15:14;2.95;;;1.08;;
23280;SDS011;11809;56.390;-3.266;2023-04-25T02:17:41;0.85;;;0.70;;
23280;SDS011;11809;56.390;-3.266;2023-04-25T02:20:08;0.60;;;0.60;;
23280;SDS011;11809;56.390;-3.266;2023-04-25T02:22:36;0.63;;;0.60;;
23280;SDS011;11809;56.390;-3.266;2023-04-25T02:25:03;1.55;;;0.60;;
23280;SDS011;11809;56.390;-3.266;2023-04-25T02:27:31;0.57;;;0.52;;
23280;SDS011;11809;56.390;-3.266;2023-04-25T02:29:58;1.23;;;0.70;;
23280;SDS011;11809;56.390;-3.266;2023-04-25T02:32:25;1.13;;;0.73;;
23280;SDS011;11809;56.390;-3.266;2023-04-25T02:34:52;0.57;;;0.57;;
23280;SDS011;11809;56.390;-3.266;2023-04-25T02:37:20;0.90;;;0.60;;
23280;SDS011;11809;56.390;-3.266;2023-04-25T02:39:46;0.93;;;0.73;;
23280;SDS011;11809;56.390;-3.266;2023-04-25T02:42:13;1.05;;;0.65;;
23280;SDS011;11809;56.390;-3.266;2023-04-25T02:44:40;1.20;;;0.75;;
23280;SDS011;11809;56.390;-3.266;2023-04-25T02:47:07;0.60;;;0.60;;
23280;SDS011;11809;56.390;-3.266;2023-04-25T02:49:34;0.60;;;0.60;;
23280;SDS011;11809;56.390;-3.266;2023-04-25T02:52:02;0.50;;;0.50;;
23280;SDS011;11809;56.390;-3.266;2023-04-25T02:54:29;0.75;;;0.60;;
23280;SDS011;11809;56.390;-3.266;2023-04-25T02:56:56;0.75;;;0.55;;
23280;SDS011;11809;56.390;-3.266;2023-04-25T02:59:23;1.33;;;0.60;;
23280;SDS011;11809;56.390;-3.266;2023-04-25T03:01:50;0.85;;;0.60;;
23280;SDS011;11809;56.390;-3.266;2023-04-25T03:04:17;0.50;;;0.50;;
23280;SDS011;11809;56.390;-3.266;2023-04-25T03:06:45;1.58;;;0.63;;
23280;SDS011;11809;56.390;-3.266;2023-04-25T03:09:13;2.28;;;0.52;;
23280;SDS011;11809;56.390;-3.266;2023-04-25T03:11:40;0.90;;;0.60;;
23280;SDS011;11809;56.390;-3.266;2023-04-25T03:14:07;0.70;;;0.50;;
23280;SDS011;11809;56.390;-3.266;2023-04-25T03:16:34;1.67;;;0.50;;
23280;SDS011;11809;56.390;-3.266;2023-04-25T03:19:02;0.63;;;0.50;;
23280;SDS011;11809;56.390;-3.266;2023-04-25T03:21:33;1.55;;;0.47;;
23280;SDS011;11809;56.390;-3.266;2023-04-25T03:24:02;0.60;;;0.60;;
23280;SDS011;11809;56.390;-3.266;2023-04-25T03:26:30;0.63;;;0.52;;
23280;SDS011;11809;56.390;-3.266;2023-04-25T03:28:57;0.55;;;0.45;;
23280;SDS011;11809;56.390;-3.266;2023-04-25T03:31:24;0.52;;;0.50;;
23280;SDS011;11809;56.390;-3.266;2023-04-25T03:33:51;1.10;;;0.63;;
23280;SDS011;11809;56.390;-3.266;2023-04-25T03:36:18;0.57;;;0.50;;
23280;SDS011;11809;56.390;-3.266;2023-04-25T03:38:45;1.58;;;0.68;;
23280;SDS011;11809;56.390;-3.266;2023-04-25T03:41:13;1.10;;;0.60;;
23280;SDS011;11809;56.390;-3.266;2023-04-25T03:43:39;0.60;;;0.60;;
23280;SDS011;11809;56.390;-3.266;2023-04-25T03:46:06;0.88;;;0.60;;
23280;SDS011;11809;56.390;-3.266;2023-04-25T03:48:33;0.60;;;0.60;;
23280;SDS011;11809;56.390;-3.266;2023-04-25T03:51:00;1.73;;;0.60;;
23280;SDS011;11809;56.390;-3.266;2023-04-25T03:53:27;1.73;;;0.60;;
23280;SDS011;11809;56.390;-3.266;2023-04-25T03:55:54;0.57;;;0.50;;
23280;SDS011;11809;56.390;-3.266;2023-04-25T03:58:22;0.95;;;0.77;;
23280;SDS011;11809;56.390;-3.266;2023-04-25T04:00:50;1.15;;;0.60;;
23280;SDS011;11809;56.390;-3.266;2023-04-25T04:03:17;0.60;;;0.50;;
23280;SDS011;11809;56.390;-3.266;2023-04-25T04:05:45;0.50;;;0.50;;
23280;SDS011;11809;56.390;-3.266;2023-04-25T04:08:13;0.47;;;0.40;;
23280;SDS011;11809;56.390;-3.266;2023-04-25T04:10:40;0.63;;;0.50;;
23280;SDS011;11809;56.390;-3.266;2023-04-25T04:13:07;1.02;;;0.60;;
23280;SDS011;11809;56.390;-3.266;2023-04-25T04:15:34;1.20;;;0.50;;
23280;SDS011;11809;56.390;-3.266;2023-04-25T04:18:01;0.57;;;0.50;;
23280;SDS011;11809;56.390;-3.266;2023-04-25T04:20:31;1.90;;;0.68;;
23280;SDS011;11809;56.390;-3.266;2023-04-25T04:22:58;0.50;;;0.50;;
23280;SDS011;11809;56.390;-3.266;2023-04-25T04:25:24;0.88;;;0.60;;
23280;SDS011;11809;56.390;-3.266;2023-04-25T04:27:52;1.02;;;0.70;;
23280;SDS011;11809;56.390;-3.266;2023-04-25T04:30:23;0.65;;;0.50;;
23280;SDS011;11809;56.390;-3.266;2023-04-25T04:32:56;0.75;;;0.60;;
23280;SDS011;11809;56.390;-3.266;2023-04-25T04:35:23;1.65;;;0.57;;
23280;SDS011;11809;56.390;-3.266;2023-04-25T04:37:50;0.65;;;0.60;;
23280;SDS011;11809;56.390;-3.266;2023-04-25T04:40:17;1.17;;;0.50;;
23280;SDS011;11809;56.390;-3.266;2023-04-25T04:42:44;8.93;;;0.95;;
23280;SDS011;11809;56.390;-3.266;2023-04-25T04:45:12;4.63;;;0.70;;
23280;SDS011;11809;56.390;-3.266;2023-04-25T04:47:39;3.30;;;0.80;;
23280;SDS011;11809;56.390;-3.266;2023-04-25T04:50:07;6.72;;;0.70;;
23280;SDS011;11809;56.390;-3.266;2023-04-25T04:52:36;4.75;;;0.80;;
23280;SDS011;11809;56.390;-3.266;2023-04-25T04:55:04;2.45;;;1.10;;
23280;SDS011;11809;56.390;-3.266;2023-04-25T04:57:32;1.58;;;0.70;;
23280;SDS011;11809;56.390;-3.266;2023-04-25T04:59:59;2.50;;;0.47;;
23280;SDS011;11809;56.390;-3.266;2023-04-25T05:02:26;2.17;;;1.50;;
23280;SDS011;11809;56.390;-3.266;2023-04-25T05:08:32;5.22;;;0.70;;
23280;SDS011;11809;56.390;-3.266;2023-04-25T05:11:12;3.80;;;0.93;;
23280;SDS011;11809;56.390;-3.266;2023-04-25T05:13:39;5.60;;;0.77;;
23280;SDS011;11809;56.390;-3.266;2023-04-25T05:16:06;5.75;;;0.50;;
23280;SDS011;11809;56.390;-3.266;2023-04-25T05:18:33;1.13;;;0.50;;
23280;SDS011;11809;56.390;-3.266;2023-04-25T05:21:00;3.35;;;0.57;;
23280;SDS011;11809;56.390;-3.266;2023-04-25T05:23:27;1.05;;;0.70;;
23280;SDS011;11809;56.390;-3.266;2023-04-25T05:25:58;0.90;;;0.50;;
23280;SDS011;11809;56.390;-3.266;2023-04-25T05:28:26;1.40;;;0.70;;
23280;SDS011;11809;56.390;-3.266;2023-04-25T05:30:53;11.93;;;1.00;;
23280;SDS011;11809;56.390;-3.266;2023-04-25T05:33:20;10.82;;;0.98;;
23280;SDS011;11809;56.390;-3.266;2023-04-25T05:35:47;13.43;;;1.40;;
23280;SDS011;11809;56.390;-3.266;2023-04-25T05:38:14;15.88;;;1.17;;
23280;SDS011;11809;56.390;-3.266;2023-04-25T05:40:41;6.38;;;0.80;;
23280;SDS011;11809;56.390;-3.266;2023-04-25T05:43:08;5.45;;;1.02;;
23280;SDS011;11809;56.390;-3.266;2023-04-25T05:45:35;2.25;;;0.98;;
23280;SDS011;11809;56.390;-3.266;2023-04-25T05:48:02;6.45;;;1.05;;
23280;SDS011;11809;56.390;-3.266;2023-04-25T05:50:29;4.03;;;0.80;;
23280;SDS011;11809;56.390;-3.266;2023-04-25T05:52:56;6.22;;;0.82;;
23280;SDS011;11809;56.390;-3.266;2023-04-25T05:55:23;5.18;;;0.60;;
23280;SDS011;11809;56.390;-3.266;2023-04-25T05:57:51;18.10;;;1.60;;
23280;SDS011;11809;56.390;-3.266;2023-04-25T06:00:18;2.90;;;0.73;;
23280;SDS011;11809;56.390;-3.266;2023-04-25T06:02:45;15.52;;;1.20;;
23280;SDS011;11809;56.390;-3.266;2023-04-25T06:05:12;19.67;;;1.83;;
23280;SDS011;11809;56.390;-3.266;2023-04-25T06:07:39;4.88;;;1.13;;
23280;SDS011;11809;56.390;-3.266;2023-04-25T06:10:07;4.88;;;0.80;;
23280;SDS011;11809;56.390;-3.266;2023-04-25T06:12:34;4.07;;;0.90;;
23280;SDS011;11809;56.390;-3.266;2023-04-25T06:15:01;4.95;;;1.20;;
23280;SDS011;11809;56.390;-3.266;2023-04-25T06:17:38;9.77;;;1.45;;
23280;SDS011;11809;56.390;-3.266;2023-04-25T06:20:06;4.78;;;1.10;;
23280;SDS011;11809;56.390;-3.266;2023-04-25T06:22:34;3.80;;;0.90;;
23280;SDS011;11809;56.390;-3.266;2023-04-25T06:25:01;7.15;;;1.02;;
23280;SDS011;11809;56.390;-3.266;2023-04-25T06:27:30;27.15;;;2.70;;
23280;SDS011;11809;56.390;-3.266;2023-04-25T06:29:58;22.08;;;2.17;;
23280;SDS011;11809;56.390;-3.266;2023-04-25T06:32:25;11.25;;;1.55;;
23280;SDS011;11809;56.390;-3.266;2023-04-25T06:34:54;7.03;;;1.08;;
23280;SDS011;11809;56.390;-3.266;2023-04-25T06:37:21;7.10;;;0.95;;
23280;SDS011;11809;56.390;-3.266;2023-04-25T06:39:48;7.68;;;1.20;;
23280;SDS011;11809;56.390;-3.266;2023-04-25T06:42:15;4.85;;;1.02;;
23280;SDS011;11809;56.390;-3.266;2023-04-25T06:44:42;9.75;;;1.45;;
23280;SDS011;11809;56.390;-3.266;2023-04-25T06:47:10;5.03;;;0.80;;
23280;SDS011;11809;56.390;-3.266;2023-04-25T06:49:37;7.22;;;0.80;;
23280;SDS011;11809;56.390;-3.266;2023-04-25T06:52:04;4.93;;;0.90;;
23280;SDS011;11809;56.390;-3.266;2023-04-25T06:54:31;24.55;;;1.92;;
23280;SDS011;11809;56.390;-3.266;2023-04-25T06:56:58;28.92;;;2.72;;
23280;SDS011;11809;56.390;-3.266;2023-04-25T06:59:27;23.77;;;2.45;;
23280;SDS011;11809;56.390;-3.266;2023-04-25T07:01:54;29.45;;;2.58;;
23280;SDS011;11809;56.390;-3.266;2023-04-25T07:04:21;23.05;;;1.73;;
23280;SDS011;11809;56.390;-3.266;2023-04-25T07:06:49;35.08;;;2.38;;
23280;SDS011;11809;56.390;-3.266;2023-04-25T07:09:16;26.80;;;2.33;;
23280;SDS011;11809;56.390;-3.266;2023-04-25T07:11:43;19.30;;;2.08;;
23280;SDS011;11809;56.390;-3.266;2023-04-25T07:14:10;13.10;;;1.70;;
23280;SDS011;11809;56.390;-3.266;2023-04-25T07:16:37;14.95;;;1.63;;
23280;SDS011;11809;56.390;-3.266;2023-04-25T07:19:04;255.52;;;14.93;;
23280;SDS011;11809;56.390;-3.266;2023-04-25T07:21:32;100.45;;;7.35;;
23280;SDS011;11809;56.390;-3.266;2023-04-25T07:23:59;59.85;;;4.63;;
23280;SDS011;11809;56.390;-3.266;2023-04-25T07:26:26;51.80;;;3.17;;
23280;SDS011;11809;56.390;-3.266;2023-04-25T07:28:54;52.97;;;4.03;;
23280;SDS011;11809;56.390;-3.266;2023-04-25T07:31:21;30.13;;;3.33;;
23280;SDS011;11809;56.390;-3.266;2023-04-25T07:33:49;22.08;;;2.20;;
23280;SDS011;11809;56.390;-3.266;2023-04-25T07:36:17;29.60;;;2.47;;
23280;SDS011;11809;56.390;-3.266;2023-04-25T07:38:45;32.97;;;2.38;;
23280;SDS011;11809;56.390;-3.266;2023-04-25T07:41:12;27.50;;;2.50;;
23280;SDS011;11809;56.390;-3.266;2023-04-25T07:43:39;22.38;;;1.75;;
23280;SDS011;11809;56.390;-3.266;2023-04-25T07:46:06;19.13;;;2.17;;
23280;SDS011;11809;56.390;-3.266;2023-04-25T07:48:33;13.68;;;1.30;;
23280;SDS011;11809;56.390;-3.266;2023-04-25T07:51:00;14.70;;;1.33;;
23280;SDS011;11809;56.390;-3.266;2023-04-25T07:53:29;6.82;;;0.98;;
23280;SDS011;11809;56.390;-3.266;2023-04-25T07:55:56;9.02;;;1.10;;
23280;SDS011;11809;56.390;-3.266;2023-04-25T07:58:24;9.55;;;1.00;;
23280;SDS011;11809;56.390;-3.266;2023-04-25T08:00:51;9.95;;;1.17;;
23280;SDS011;11809;56.390;-3.266;2023-04-25T08:03:18;6.18;;;1.70;;
23280;SDS011;11809;56.390;-3.266;2023-04-25T08:05:45;12.55;;;1.30;;
23280;SDS011;11809;56.390;-3.266;2023-04-25T08:08:13;14.90;;;1.63;;
23280;SDS011;11809;56.390;-3.266;2023-04-25T08:10:40;14.82;;;1.42;;
23280;SDS011;11809;56.390;-3.266;2023-04-25T08:13:08;5.40;;;1.15;;
23280;SDS011;11809;56.390;-3.266;2023-04-25T08:15:35;10.70;;;1.05;;
23280;SDS011;11809;56.390;-3.266;2023-04-25T08:18:02;17.52;;;1.00;;
23280;SDS011;11809;56.390;-3.266;2023-04-25T08:20:29;8.52;;;0.90;;
23280;SDS011;11809;56.390;-3.266;2023-04-25T08:22:57;10.40;;;1.10;;
23280;SDS011;11809;56.390;-3.266;2023-04-25T08:25:24;7.80;;;1.20;;
23280;SDS011;11809;56.390;-3.266;2023-04-25T08:27:51;4.63;;;0.80;;
23280;SDS011;11809;56.390;-3.266;2023-04-25T08:30:18;7.63;;;1.27;;
23280;SDS011;11809;56.390;-3.266;2023-04-25T08:32:45;4.30;;;0.85;;
23280;SDS011;11809;56.390;-3.266;2023-04-25T08:35:13;4.35;;;0.80;;
23280;SDS011;11809;56.390;-3.266;2023-04-25T08:37:40;6.40;;;1.10;;
23280;SDS011;11809;56.390;-3.266;2023-04-25T08:40:08;7.55;;;1.00;;
23280;SDS011;11809;56.390;-3.266;2023-04-25T08:42:38;4.45;;;0.98;;
23280;SDS011;11809;56.390;-3.266;2023-04-25T08:45:08;2.08;;;0.68;;
23280;SDS011;11809;56.390;-3.266;2023-04-25T08:47:37;3.70;;;0.70;;
23280;SDS011;11809;56.390;-3.266;2023-04-25T08:50:06;7.35;;;0.70;;
23280;SDS011;11809;56.390;-3.266;2023-04-25T08:52:39;2.25;;;0.68;;
23280;SDS011;11809;56.390;-3.266;2023-04-25T08:55:12;3.90;;;0.50;;
23280;SDS011;11809;56.390;-3.266;2023-04-25T08:57:42;14.25;;;0.98;;
23280;SDS011;11809;56.390;-3.266;2023-04-25T09:00:10;8.18;;;0.88;;
23280;SDS011;11809;56.390;-3.266;2023-04-25T09:02:39;8.68;;;0.73;;
23280;SDS011;11809;56.390;-3.266;2023-04-25T09:05:07;4.80;;;0.90;;
23280;SDS011;11809;56.390;-3.266;2023-04-25T09:07:36;3.85;;;0.68;;
23280;SDS011;11809;56.390;-3.266;2023-04-25T09:10:04;2.47;;;0.52;;
23280;SDS011;11809;56.390;-3.266;2023-04-25T09:12:31;7.47;;;0.90;;
23280;SDS011;11809;56.390;-3.266;2023-04-25T09:15:08;4.43;;;0.52;;
23280;SDS011;11809;56.390;-3.266;2023-04-25T09:17:47;1.00;;;0.50;;
23280;SDS011;11809;56.390;-3.266;2023-04-25T09:20:22;6.85;;;0.50;;
23280;SDS011;11809;56.390;-3.266;2023-04-25T09:22:49;6.65;;;0.90;;
23280;SDS011;11809;56.390;-3.266;2023-04-25T09:25:16;2.75;;;0.68;;
23280;SDS011;11809;56.390;-3.266;2023-04-25T09:27:50;2.42;;;0.45;;
23280;SDS011;11809;56.390;-3.266;2023-04-25T09:30:18;2.63;;;0.40;;
23280;SDS011;11809;56.390;-3.266;2023-04-25T09:32:56;6.22;;;0.60;;
23280;SDS011;11809;56.390;-3.266;2023-04-25T09:35:27;20.25;;;1.48;;
23280;SDS011;11809;56.390;-3.266;2023-04-25T09:37:55;17.60;;;1.27;;
23280;SDS011;11809;56.390;-3.266;2023-04-25T09:40:22;2.70;;;0.80;;
23280;SDS011;11809;56.390;-3.266;2023-04-25T09:42:49;5.07;;;0.80;;
23280;SDS011;11809;56.390;-3.266;2023-04-25T09:45:17;6.72;;;0.50;;
23280;SDS011;11809;56.390;-3.266;2023-04-25T09:47:44;2.55;;;0.50;;
23280;SDS011;11809;56.390;-3.266;2023-04-25T09:50:15;10.65;;;0.88;;
23280;SDS011;11809;56.390;-3.266;2023-04-25T09:52:43;1.60;;;0.50;;
23280;SDS011;11809;56.390;-3.266;2023-04-25T09:55:10;27.58;;;1.92;;
23280;SDS011;11809;56.390;-3.266;2023-04-25T09:57:38;40.20;;;2.20;;
23280;SDS011;11809;56.390;-3.266;2023-04-25T10:00:06;25.83;;;2.20;;
23280;SDS011;11809;56.390;-3.266;2023-04-25T10:02:39;38.72;;;1.60;;
23280;SDS011;11809;56.390;-3.266;2023-04-25T10:05:09;13.02;;;1.48;;
23280;SDS011;11809;56.390;-3.266;2023-04-25T10:07:37;51.78;;;2.53;;
23280;SDS011;11809;56.390;-3.266;2023-04-25T10:10:06;24.05;;;1.63;;
23280;SDS011;11809;56.390;-3.266;2023-04-25T10:12:34;11.98;;;1.23;;
23280;SDS011;11809;56.390;-3.266;2023-04-25T10:15:02;8.93;;;0.75;;
23280;SDS011;11809;56.390;-3.266;2023-04-25T10:17:31;12.60;;;0.90;;
23280;SDS011;11809;56.390;-3.266;2023-04-25T10:20:00;10.85;;;1.13;;
23280;SDS011;11809;56.390;-3.266;2023-04-25T10:22:34;25.63;;;1.20;;
23280;SDS011;11809;56.390;-3.266;2023-04-25T10:25:03;9.63;;;0.80;;
23280;SDS011;11809;56.390;-3.266;2023-04-25T10:27:31;31.02;;;1.60;;
23280;SDS011;11809;56.390;-3.266;2023-04-25T10:30:07;20.98;;;1.67;;
23280;SDS011;11809;56.390;-3.266;2023-04-25T10:32:42;19.98;;;1.83;;
23280;SDS011;11809;56.390;-3.266;2023-04-25T10:35:23;12.43;;;1.23;;
23280;SDS011;11809;56.390;-3.266;2023-04-25T10:38:03;12.32;;;0.80;;
23280;SDS011;11809;56.390;-3.266;2023-04-25T10:40:37;14.15;;;1.30;;
23280;SDS011;11809;56.390;-3.266;2023-04-25T10:46:01;5.28;;;0.80;;
23280;SDS011;11809;56.390;-3.266;2023-04-25T10:48:30;21.27;;;1.60;;
23280;SDS011;11809;56.390;-3.266;2023-04-25T10:51:07;9.55;;;0.95;;
23280;SDS011;11809;56.390;-3.266;2023-04-25T10:53:36;5.85;;;0.70;;
23280;SDS011;11809;56.390;-3.266;2023-04-25T10:56:19;7.38;;;0.80;;
23280;SDS011;11809;56.390;-3.266;2023-04-25T10:58:48;4.82;;;1.10;;
23280;SDS011;11809;56.390;-3.266;2023-04-25T11:01:24;10.98;;;1.10;;
23280;SDS011;11809;56.390;-3.266;2023-04-25T11:03:57;5.72;;;0.82;;
23280;SDS011;11809;56.390;-3.266;2023-04-25T11:09:10;5.43;;;0.77;;
23280;SDS011;11809;56.390;-3.266;2023-04-25T11:11:41;4.47;;;0.90;;
23280;SDS011;11809;56.390;-3.266;2023-04-25T11:14:08;14.00;;;1.77;;
23280;SDS011;11809;56.390;-3.266;2023-04-25T11:16:35;23.63;;;2.10;;
23280;SDS011;11809;56.390;-3.266;2023-04-25T11:19:03;9.70;;;1.63;;
23280;SDS011;11809;56.390;-3.266;2023-04-25T11:21:30;21.35;;;10.55;;
23280;SDS011;11809;56.390;-3.266;2023-04-25T11:23:58;24.92;;;12.68;;
23280;SDS011;11809;56.390;-3.266;2023-04-25T11:26:26;13.30;;;5.10;;
23280;SDS011;11809;56.390;-3.266;2023-04-25T11:28:56;24.85;;;18.00;;
23280;SDS011;11809;56.390;-3.266;2023-04-25T11:31:26;31.23;;;16.55;;
23280;SDS011;11809;56.390;-3.266;2023-04-25T11:33:53;24.67;;;12.27;;
23280;SDS011;11809;56.390;-3.266;2023-04-25T11:36:22;28.27;;;12.65;;
23280;SDS011;11809;56.390;-3.266;2023-04-25T11:38:51;41.38;;;10.02;;
23280;SDS011;11809;56.390;-3.266;2023-04-25T11:41:19;25.42;;;9.13;;
23280;SDS011;11809;56.390;-3.266;2023-04-25T11:43:46;25.02;;;10.55;;
23280;SDS011;11809;56.390;-3.266;2023-04-25T11:46:16;20.88;;;10.02;;
23280;SDS011;11809;56.390;-3.266;2023-04-25T11:48:47;13.38;;;9.70;;
23280;SDS011;11809;56.390;-3.266;2023-04-25T11:51:15;15.00;;;8.82;;
23280;SDS011;11809;56.390;-3.266;2023-04-25T11:53:42;13.07;;;8.48;;
23280;SDS011;11809;56.390;-3.266;2023-04-25T11:56:11;11.55;;;7.47;;
23280;SDS011;11809;56.390;-3.266;2023-04-25T11:58:55;10.65;;;6.70;;
23280;SDS011;11809;56.390;-3.266;2023-04-25T12:09:14;5.47;;;4.32;;
23280;SDS011;11809;56.390;-3.266;2023-04-25T12:11:45;4.05;;;3.70;;
23280;SDS011;11809;56.390;-3.266;2023-04-25T12:16:51;4.97;;;3.20;;
23280;SDS011;11809;56.390;-3.266;2023-04-25T12:19:18;14.05;;;3.15;;
23280;SDS011;11809;56.390;-3.266;2023-04-25T12:21:47;59.08;;;6.22;;
23280;SDS011;11809;56.390;-3.266;2023-04-25T12:24:24;33.05;;;3.58;;
23280;SDS011;11809;56.390;-3.266;2023-04-25T12:27:04;34.97;;;9.87;;
23280;SDS011;11809;56.390;-3.266;2023-04-25T12:29:33;23.58;;;5.63;;
23280;SDS011;11809;56.390;-3.266;2023-04-25T12:32:15;22.80;;;4.63;;
23280;SDS011;11809;56.390;-3.266;2023-04-25T12:34:42;17.15;;;3.50;;
23280;SDS011;11809;56.390;-3.266;2023-04-25T12:37:10;27.48;;;4.25;;
23280;SDS011;11809;56.390;-3.266;2023-04-25T12:39:38;33.55;;;4.90;;
23280;SDS011;11809;56.390;-3.266;2023-04-25T12:42:05;21.70;;;3.42;;
23280;SDS011;11809;56.390;-3.266;2023-04-25T12:44:35;22.35;;;3.70;;
23280;SDS011;11809;56.390;-3.266;2023-04-25T12:47:02;12.27;;;3.10;;
23280;SDS011;11809;56.390;-3.266;2023-04-25T12:49:30;25.85;;;3.88;;
23280;SDS011;11809;56.390;-3.266;2023-04-25T12:51:57;24.58;;;3.60;;
23280;SDS011;11809;56.390;-3.266;2023-04-25T12:54:24;17.88;;;2.92;;
23280;SDS011;11809;56.390;-3.266;2023-04-25T12:56:52;14.48;;;3.08;;
23280;SDS011;11809;56.390;-3.266;2023-04-25T12:59:19;7.57;;;2.20;;
23280;SDS011;11809;56.390;-3.266;2023-04-25T13:01:47;18.52;;;2.78;;
23280;SDS011;11809;56.390;-3.266;2023-04-25T13:04:15;6.95;;;1.98;;
23280;SDS011;11809;56.390;-3.266;2023-04-25T13:06:42;7.50;;;1.80;;
23280;SDS011;11809;56.390;-3.266;2023-04-25T13:09:10;6.20;;;1.60;;
23280;SDS011;11809;56.390;-3.266;2023-04-25T13:11:39;5.70;;;1.40;;
23280;SDS011;11809;56.390;-3.266;2023-04-25T13:14:07;9.90;;;1.73;;
23280;SDS011;11809;56.390;-3.266;2023-04-25T13:16:35;7.15;;;1.45;;
23280;SDS011;11809;56.390;-3.266;2023-04-25T13:19:03;3.78;;;1.30;;
23280;SDS011;11809;56.390;-3.266;2023-04-25T13:21:30;6.85;;;1.33;;
23280;SDS011;11809;56.390;-3.266;2023-04-25T13:23:59;2.05;;;0.90;;
23280;SDS011;11809;56.390;-3.266;2023-04-25T13:26:26;2.17;;;1.05;;
23280;SDS011;11809;56.390;-3.266;2023-04-25T13:28:53;3.47;;;0.98;;
23280;SDS011;11809;56.390;-3.266;2023-04-25T13:31:20;2.47;;;0.95;;
23280;SDS011;11809;56.390;-3.266;2023-04-25T13:33:48;14.85;;;1.25;;
23280;SDS011;11809;56.390;-3.266;2023-04-25T13:36:16;6.07;;;1.13;;
23280;SDS011;11809;56.390;-3.266;2023-04-25T13:38:43;99.38;;;43.03;;
23280;SDS011;11809;56.390;-3.266;2023-04-25T13:41:11;112.10;;;53.67;;
23280;SDS011;11809;56.390;-3.266;2023-04-25T13:43:45;57.35;;;23.05;;
23280;SDS011;11809;56.390;-3.266;2023-04-25T13:46:15;34.03;;;15.07;;
23280;SDS011;11809;56.390;-3.266;2023-04-25T13:49:03;37.38;;;15.13;;
23280;SDS011;11809;56.390;-3.266;2023-04-25T13:51:38;28.83;;;10.23;;
23280;SDS011;11809;56.390;-3.266;2023-04-25T13:54:05;19.63;;;7.93;;
23280;SDS011;11809;56.390;-3.266;2023-04-25T13:56:32;14.48;;;6.63;;
23280;SDS011;11809;56.390;-3.266;2023-04-25T13:58:59;13.25;;;5.97;;
23280;SDS011;11809;56.390;-3.266;2023-04-25T14:01:27;10.55;;;5.25;;
23280;SDS011;11809;56.390;-3.266;2023-04-25T14:03:54;11.10;;;4.43;;
23280;SDS011;11809;56.390;-3.266;2023-04-25T14:06:22;32.35;;;6.35;;
23280;SDS011;11809;56.390;-3.266;2023-04-25T14:08:50;84.18;;;7.40;;
23280;SDS011;11809;56.390;-3.266;2023-04-25T14:11:17;57.92;;;6.97;;
23280;SDS011;11809;56.390;-3.266;2023-04-25T14:13:45;29.17;;;5.38;;
23280;SDS011;11809;56.390;-3.266;2023-04-25T14:16:12;22.05;;;4.30;;
23280;SDS011;11809;56.390;-3.266;2023-04-25T14:18:39;28.83;;;4.65;;
23280;SDS011;11809;56.390;-3.266;2023-04-25T14:21:07;28.17;;;4.35;;
23280;SDS011;11809;56.390;-3.266;2023-04-25T14:23:34;41.40;;;3.75;;
23280;SDS011;11809;56.390;-3.266;2023-04-25T14:26:01;28.67;;;3.35;;
23280;SDS011;11809;56.390;-3.266;2023-04-25T14:28:28;10.35;;;2.70;;
23280;SDS011;11809;56.390;-3.266;2023-04-25T14:30:55;14.85;;;2.47;;
23280;SDS011;11809;56.390;-3.266;2023-04-25T14:33:23;21.90;;;2.58;;
23280;SDS011;11809;56.390;-3.266;2023-04-25T14:35:50;17.38;;;2.22;;
23280;SDS011;11809;56.390;-3.266;2023-04-25T14:38:17;6.07;;;1.60;;
23280;SDS011;11809;56.390;-3.266;2023-04-25T14:40:49;5.70;;;1.50;;
23280;SDS011;11809;56.390;-3.266;2023-04-25T14:43:17;5.43;;;1.33;;
23280;SDS011;11809;56.390;-3.266;2023-04-25T14:45:44;9.02;;;1.33;;
23280;SDS011;11809;56.390;-3.266;2023-04-25T14:48:11;6.10;;;1.52;;
23280;SDS011;11809;56.390;-3.266;2023-04-25T14:50:39;6.18;;;1.10;;
23280;SDS011;11809;56.390;-3.266;2023-04-25T14:53:06;10.13;;;1.42;;
23280;SDS011;11809;56.390;-3.266;2023-04-25T14:55:33;2.78;;;1.10;;
23280;SDS011;11809;56.390;-3.266;2023-04-25T14:58:00;5.97;;;1.20;;